Time;durP1;ratioP1;P1;durP2;ratioP2;P2;SDS_P1;SDS_P2;PMS_P1;PMS_P2;Temp;Humidity;BMP_temperature;BMP_pressure;BME280_temperature;BME280_humidity;BME280_pressure;Samples;Min_cycle;Max_cycle;Signal;HPM_P1;HPM_P2
2024/03/08 00:02:16;;;;;;;4.03;3.00;;;21.00;53.00;;;;;;5079048;28;20123;-66
2024/03/08 00:04:42;;;;;;;3.60;2.60;;;21.00;53.00;;;;;;5062387;28;20484;-66
2024/03/08 00:07:08;;;;;;;3.83;3.00;;;21.00;53.00;;;;;;5081971;28;20099;-66
2024/03/08 00:09:33;;;;;;;3.78;2.90;;;21.00;53.00;;;;;;5077836;28;20044;-65
2024/03/08 00:11:59;;;;;;;4.18;2.75;;;21.00;53.00;;;;;;5079210;28;20565;-66
2024/03/08 00:14:25;;;;;;;3.70;2.78;;;21.00;53.00;;;;;;5079558;28;20033;-66
2024/03/08 00:16:54;;;;;;;4.90;2.83;;;21.00;53.00;;;;;;5077811;28;20134;-66
2024/03/08 00:19:19;;;;;;;3.53;2.67;;;21.00;53.00;;;;;;5069335;28;20504;-65
2024/03/08 00:21:45;;;;;;;3.50;2.45;;;21.00;53.00;;;;;;5079256;28;20070;-66
2024/03/08 00:24:11;;;;;;;3.60;2.55;;;21.00;53.00;;;;;;5079783;28;20108;-66
2024/03/08 00:26:37;;;;;;;4.32;2.85;;;21.00;53.00;;;;;;5080334;28;20021;-66
2024/03/08 00:29:03;;;;;;;3.80;2.35;;;21.00;53.00;;;;;;5081904;28;20028;-66
2024/03/08 00:31:30;;;;;;;3.72;2.70;;;21.00;53.00;;;;;;5078520;28;20492;-63
2024/03/08 00:33:56;;;;;;;3.63;2.55;;;20.90;52.90;;;;;;5080030;28;20024;-63
2024/03/08 00:36:22;;;;;;;3.92;2.80;;;20.90;52.90;;;;;;5080771;28;20096;-63
2024/03/08 00:38:48;;;;;;;3.75;2.70;;;20.90;52.90;;;;;;5080164;28;20033;-63
2024/03/08 00:41:14;;;;;;;3.13;2.40;;;20.90;52.90;;;;;;5061853;28;20454;-63
2024/03/08 00:43:39;;;;;;;3.60;2.50;;;20.90;52.90;;;;;;5077980;28;20153;-64
2024/03/08 00:46:05;;;;;;;3.83;2.40;;;20.90;52.80;;;;;;5078748;28;20099;-63
2024/03/08 00:48:30;;;;;;;3.88;2.58;;;20.90;52.80;;;;;;5067896;28;20032;-64
2024/03/08 00:50:57;;;;;;;4.15;2.58;;;20.90;52.80;;;;;;5079306;28;20076;-64
2024/03/08 00:53:23;;;;;;;3.58;2.72;;;20.90;53.40;;;;;;5078222;28;20057;-64
2024/03/08 00:55:48;;;;;;;3.40;2.60;;;20.90;52.80;;;;;;5069699;28;20036;-63
2024/03/08 00:58:15;;;;;;;4.15;2.65;;;20.80;52.80;;;;;;5061353;28;20043;-64
2024/03/08 01:00:40;;;;;;;3.50;2.47;;;20.80;52.80;;;;;;5078572;28;20031;-63
2024/03/08 01:03:06;;;;;;;3.42;2.50;;;20.80;52.80;;;;;;5076668;28;20032;-63
2024/03/08 01:05:32;;;;;;;3.42;2.40;;;20.80;52.80;;;;;;5078774;28;20029;-64
2024/03/08 01:07:58;;;;;;;3.92;2.55;;;20.80;52.80;;;;;;5079821;28;20052;-63
2024/03/08 01:10:24;;;;;;;3.80;2.42;;;20.80;52.80;;;;;;5078414;28;20040;-62
2024/03/08 01:12:54;;;;;;;3.58;2.60;;;20.80;52.80;;;;;;5078004;28;20492;-63
2024/03/08 01:15:20;;;;;;;3.65;2.63;;;20.80;52.80;;;;;;5077179;28;20477;-63
2024/03/08 01:17:46;;;;;;;3.83;2.80;;;20.80;52.80;;;;;;5075565;28;20024;-65
2024/03/08 01:20:12;;;;;;;3.53;2.55;;;20.80;52.80;;;;;;5077558;28;20034;-66
2024/03/08 01:22:38;;;;;;;3.40;2.50;;;20.70;52.80;;;;;;5079848;28;20024;-66
2024/03/08 01:25:04;;;;;;;3.75;2.80;;;20.70;52.80;;;;;;5077776;28;20533;-66
2024/03/08 01:27:30;;;;;;;3.40;2.35;;;20.70;52.80;;;;;;5080206;28;20020;-66
2024/03/08 01:29:56;;;;;;;3.72;2.45;;;20.70;52.80;;;;;;5080336;28;20039;-66
2024/03/08 01:32:23;;;;;;;3.38;2.35;;;20.70;52.80;;;;;;5078011;28;20033;-66
2024/03/08 01:34:49;;;;;;;3.40;2.67;;;20.70;52.80;;;;;;5077455;28;20021;-66
2024/03/08 01:37:14;;;;;;;3.60;2.40;;;20.70;52.80;;;;;;5080282;28;20107;-66
2024/03/08 01:39:40;;;;;;;3.17;2.25;;;20.70;52.80;;;;;;5079372;28;20032;-65
2024/03/08 01:42:06;;;;;;;3.20;2.33;;;20.70;52.80;;;;;;5080334;28;20059;-65
2024/03/08 01:44:31;;;;;;;3.60;2.70;;;20.70;52.80;;;;;;5076951;28;20035;-65
2024/03/08 01:46:57;;;;;;;3.22;2.53;;;20.70;52.80;;;;;;5079859;28;20086;-66
2024/03/08 01:49:26;;;;;;;3.30;2.40;;;20.60;52.80;;;;;;5078508;28;20041;-65
2024/03/08 01:51:52;;;;;;;3.10;2.20;;;20.70;52.80;;;;;;5079078;28;20059;-65
2024/03/08 01:54:19;;;;;;;2.95;2.10;;;20.70;52.80;;;;;;5079535;28;20031;-65
2024/03/08 01:56:46;;;;;;;3.75;2.72;;;20.60;52.70;;;;;;5078808;28;20023;-65
2024/03/08 01:59:12;;;;;;;3.25;2.30;;;20.60;52.70;;;;;;5062373;28;20024;-65
2024/03/08 02:01:38;;;;;;;2.92;2.15;;;20.60;52.70;;;;;;5076379;28;20548;-66
2024/03/08 02:04:06;;;;;;;3.15;2.47;;;20.60;52.70;;;;;;5077487;28;20029;-65
2024/03/08 02:06:32;;;;;;;2.65;2.25;;;20.60;52.70;;;;;;5079289;28;20064;-65
2024/03/08 02:08:58;;;;;;;3.25;2.42;;;20.60;52.70;;;;;;5076542;28;20035;-65
2024/03/08 02:11:23;;;;;;;3.22;2.28;;;20.60;52.70;;;;;;5077378;28;20036;-65
2024/03/08 02:13:49;;;;;;;3.15;2.30;;;20.60;52.70;;;;;;5078506;28;20078;-65
2024/03/08 02:16:21;;;;;;;3.28;2.30;;;20.60;52.70;;;;;;5078212;28;20024;-65
2024/03/08 02:18:46;;;;;;;3.22;2.40;;;20.60;52.70;;;;;;5075552;28;20130;-65
2024/03/08 02:21:12;;;;;;;3.15;2.30;;;20.60;52.70;;;;;;5082006;28;20107;-65
2024/03/08 02:23:38;;;;;;;3.25;2.38;;;20.60;52.70;;;;;;5079689;28;20028;-65
2024/03/08 02:26:04;;;;;;;3.17;2.42;;;20.60;52.70;;;;;;5077555;28;20047;-65
2024/03/08 02:28:30;;;;;;;2.85;2.35;;;20.50;52.70;;;;;;5093897;28;20115;-65
2024/03/08 02:30:56;;;;;;;3.30;2.53;;;20.50;52.70;;;;;;5078050;28;20107;-65
2024/03/08 02:33:22;;;;;;;3.47;2.60;;;20.50;53.20;;;;;;5077488;28;20072;-65
2024/03/08 02:35:49;;;;;;;3.33;2.63;;;20.50;52.70;;;;;;5058314;28;20074;-65
2024/03/08 02:38:16;;;;;;;3.50;2.47;;;20.50;52.60;;;;;;5079669;28;20476;-65
2024/03/08 02:40:49;;;;;;;3.03;2.33;;;20.50;52.70;;;;;;5078578;28;20035;-66
2024/03/08 02:43:15;;;;;;;3.33;2.40;;;20.50;52.70;;;;;;5078114;28;20050;-65
2024/03/08 02:45:42;;;;;;;3.15;2.40;;;20.50;52.70;;;;;;5077640;28;20144;-65
2024/03/08 02:48:08;;;;;;;3.58;2.60;;;20.50;52.60;;;;;;5074600;28;20435;-65
2024/03/08 02:50:36;;;;;;;3.58;2.50;;;20.50;52.70;;;;;;5067918;28;20078;-64
2024/03/08 02:53:03;;;;;;;3.33;2.75;;;20.50;52.60;;;;;;5078675;28;20032;-65
2024/03/08 02:55:29;;;;;;;3.50;2.40;;;20.50;52.70;;;;;;5081236;28;20029;-65
2024/03/08 02:57:55;;;;;;;3.03;2.40;;;20.50;52.70;;;;;;5081623;28;20097;-65
2024/03/08 03:00:23;;;;;;;3.20;2.40;;;20.40;53.10;;;;;;5083970;28;20052;-65
2024/03/08 03:02:53;;;;;;;3.90;2.70;;;20.40;52.60;;;;;;5061187;28;20481;-65
2024/03/08 03:05:22;;;;;;;3.20;2.35;;;20.40;52.60;;;;;;5078342;28;20032;-65
2024/03/08 03:07:48;;;;;;;3.20;2.47;;;20.40;52.60;;;;;;5081179;28;20040;-65
2024/03/08 03:10:16;;;;;;;3.05;2.33;;;20.40;52.60;;;;;;5081503;28;20357;-65
2024/03/08 03:12:42;;;;;;;3.17;2.30;;;20.40;52.60;;;;;;5081309;28;20028;-65
2024/03/08 03:15:08;;;;;;;2.85;2.17;;;20.40;52.70;;;;;;5083066;28;20072;-65
2024/03/08 03:17:34;;;;;;;3.60;2.50;;;20.40;52.60;;;;;;5081387;28;20468;-65
2024/03/08 03:20:04;;;;;;;2.97;2.28;;;20.40;52.60;;;;;;5079007;28;20043;-65
2024/03/08 03:22:30;;;;;;;3.05;2.40;;;20.30;52.60;;;;;;5082737;28;20024;-65
2024/03/08 03:24:58;;;;;;;3.00;2.35;;;20.40;52.60;;;;;;5081083;28;20622;-65
2024/03/08 03:27:24;;;;;;;3.00;2.28;;;20.40;52.60;;;;;;5081541;28;20021;-65
2024/03/08 03:29:51;;;;;;;3.10;2.15;;;20.40;52.60;;;;;;5063187;28;20032;-63
2024/03/08 03:32:18;;;;;;;3.30;2.40;;;20.40;53.20;;;;;;5061964;28;20461;-64
2024/03/08 03:34:44;;;;;;;2.78;2.10;;;20.40;52.60;;;;;;5079376;28;20027;-62
2024/03/08 03:37:13;;;;;;;3.15;2.22;;;20.30;52.60;;;;;;5080360;28;20132;-63
2024/03/08 03:39:49;;;;;;;3.17;2.30;;;20.30;52.60;;;;;;5081031;28;20444;-65
2024/03/08 03:42:18;;;;;;;3.30;2.47;;;20.30;52.60;;;;;;5080593;28;20455;-66
2024/03/08 03:44:44;;;;;;;;;;;20.30;52.60;;;;;;5079900;28;20032;-65
2024/03/08 03:47:10;;;;;;;3.33;2.22;;;20.30;52.50;;;;;;5080457;28;19956;-65
2024/03/08 03:49:36;;;;;;;2.92;2.30;;;20.30;52.60;;;;;;5079076;28;20114;-66
2024/03/08 03:52:02;;;;;;;3.13;2.40;;;20.30;52.60;;;;;;5081898;28;20548;-66
2024/03/08 03:54:30;;;;;;;3.53;2.42;;;20.30;53.10;;;;;;5081062;28;20064;-66
2024/03/08 03:56:56;;;;;;;2.72;2.10;;;20.30;52.60;;;;;;5081183;28;20479;-65
2024/03/08 03:59:21;;;;;;;2.80;2.13;;;20.30;52.60;;;;;;5081815;28;20055;-65
2024/03/08 04:01:49;;;;;;;2.80;2.15;;;20.30;52.60;;;;;;5079426;28;20111;-65
2024/03/08 04:04:15;;;;;;;3.30;2.47;;;20.20;52.60;;;;;;5078993;28;20029;-65
2024/03/08 04:06:41;;;;;;;2.63;1.95;;;20.30;52.70;;;;;;5079339;28;20028;-65
2024/03/08 04:09:07;;;;;;;3.20;2.30;;;20.30;52.60;;;;;;5083327;28;20074;-65
2024/03/08 04:11:32;;;;;;;2.88;2.10;;;20.20;52.60;;;;;;5079715;28;20417;-65
2024/03/08 04:13:58;;;;;;;3.13;2.03;;;20.30;52.60;;;;;;5081661;28;20034;-65
2024/03/08 04:16:24;;;;;;;2.95;2.03;;;20.20;52.60;;;;;;5061556;28;20025;-65
2024/03/08 04:18:50;;;;;;;2.72;2.08;;;20.20;52.60;;;;;;5077381;28;20024;-65
2024/03/08 04:21:15;;;;;;;3.17;2.20;;;20.20;52.60;;;;;;5080160;28;20027;-65
2024/03/08 04:23:41;;;;;;;3.05;2.30;;;20.20;52.60;;;;;;5081132;28;20154;-65
2024/03/08 04:26:07;;;;;;;2.97;2.20;;;20.20;52.60;;;;;;5063559;28;20040;-65
2024/03/08 04:28:32;;;;;;;2.80;2.10;;;20.20;52.60;;;;;;5081200;28;20032;-65
2024/03/08 04:31:00;;;;;;;3.00;2.20;;;20.20;52.70;;;;;;5063718;28;20602;-65
2024/03/08 04:33:26;;;;;;;2.70;2.00;;;20.20;52.60;;;;;;5077795;28;20059;-65
2024/03/08 04:35:52;;;;;;;2.85;2.10;;;20.20;52.60;;;;;;5080310;28;20079;-65
2024/03/08 04:38:17;;;;;;;2.80;2.10;;;20.20;52.60;;;;;;5078392;28;20028;-65
2024/03/08 04:40:43;;;;;;;2.97;2.13;;;20.20;52.60;;;;;;5079062;28;20024;-65
2024/03/08 04:43:10;;;;;;;3.00;2.10;;;20.20;52.60;;;;;;5077590;28;20107;-65
2024/03/08 04:45:36;;;;;;;2.80;2.20;;;20.20;52.70;;;;;;5077931;28;20020;-65
2024/03/08 04:48:02;;;;;;;2.50;1.95;;;20.20;52.70;;;;;;5061461;28;20031;-65
2024/03/08 04:50:30;;;;;;;3.10;2.10;;;20.20;52.70;;;;;;5067946;28;20433;-65
2024/03/08 04:52:56;;;;;;;2.65;1.98;;;20.20;52.70;;;;;;5078049;28;20032;-64
2024/03/08 04:55:21;;;;;;;2.72;2.13;;;20.20;52.70;;;;;;5080702;28;20085;-64
2024/03/08 04:57:48;;;;;;;3.03;2.30;;;20.20;52.70;;;;;;5079662;28;20627;-64
2024/03/08 05:00:14;;;;;;;2.50;2.03;;;20.20;52.80;;;;;;5062982;28;20032;-65
2024/03/08 05:02:41;;;;;;;3.10;2.17;;;20.20;52.80;;;;;;5079288;28;20066;-64
2024/03/08 05:05:09;;;;;;;2.80;2.08;;;20.20;52.80;;;;;;5059564;28;20109;-64
2024/03/08 05:07:35;;;;;;;2.80;2.10;;;20.10;52.70;;;;;;5077839;28;20595;-65
2024/03/08 05:10:02;;;;;;;2.80;2.15;;;20.10;52.80;;;;;;5062769;28;20154;-65
2024/03/08 05:12:28;;;;;;;2.97;2.20;;;20.10;52.80;;;;;;5080671;28;20111;-65
2024/03/08 05:14:53;;;;;;;2.85;2.00;;;20.10;52.80;;;;;;5080476;28;20587;-65
2024/03/08 05:17:19;;;;;;;2.83;2.13;;;20.10;52.80;;;;;;5076948;28;20926;-65
2024/03/08 05:19:45;;;;;;;2.88;1.90;;;20.10;52.80;;;;;;5077091;28;20028;-65
2024/03/08 05:22:10;;;;;;;3.00;1.88;;;20.10;52.80;;;;;;5078469;28;20028;-66
2024/03/08 05:24:36;;;;;;;2.83;2.00;;;20.10;52.80;;;;;;5078560;28;20039;-65
2024/03/08 05:27:03;;;;;;;4.13;2.30;;;20.10;52.80;;;;;;5079653;28;20028;-65
2024/03/08 05:29:29;;;;;;;2.50;1.95;;;20.10;52.80;;;;;;5060240;28;20499;-65
2024/03/08 05:31:55;;;;;;;3.15;2.05;;;20.10;52.90;;;;;;5080240;28;20079;-65
2024/03/08 05:34:21;;;;;;;3.10;2.25;;;20.10;52.90;;;;;;5074975;28;20031;-65
2024/03/08 05:36:50;;;;;;;2.88;2.08;;;20.10;53.00;;;;;;5077813;28;20023;-65
2024/03/08 05:39:17;;;;;;;2.70;2.00;;;20.10;52.90;;;;;;5061658;28;20025;-65
2024/03/08 05:41:44;;;;;;;2.78;2.08;;;20.10;52.90;;;;;;5079489;28;20487;-65
2024/03/08 05:44:10;;;;;;;3.25;2.08;;;20.10;52.90;;;;;;5076377;28;20094;-65
2024/03/08 05:46:36;;;;;;;3.10;2.10;;;20.10;52.90;;;;;;5078762;28;20032;-65
2024/03/08 05:49:06;;;;;;;3.30;2.22;;;20.10;53.00;;;;;;5060244;28;20034;-65
2024/03/08 05:51:34;;;;;;;3.67;2.33;;;20.10;52.90;;;;;;5079431;28;20048;-64
2024/03/08 05:54:02;;;;;;;2.60;1.98;;;20.00;52.90;;;;;;5076559;28;20536;-65
2024/03/08 05:56:28;;;;;;;2.58;2.08;;;20.10;53.00;;;;;;5068371;28;20101;-65
2024/03/08 05:58:54;;;;;;;2.53;1.98;;;20.10;53.00;;;;;;5058919;28;20063;-64
2024/03/08 06:01:21;;;;;;;3.00;2.20;;;20.10;53.00;;;;;;5078974;28;20056;-63
2024/03/08 06:03:48;;;;;;;2.60;1.90;;;20.10;53.00;;;;;;5078411;28;20491;-63
2024/03/08 06:06:15;;;;;;;2.97;2.05;;;20.10;53.00;;;;;;5058297;28;20025;-63
2024/03/08 06:08:42;;;;;;;3.38;2.30;;;20.00;53.00;;;;;;5077440;28;20056;-64
2024/03/08 06:11:08;;;;;;;3.42;2.50;;;20.10;53.10;;;;;;5077666;28;20032;-63
2024/03/08 06:13:34;;;;;;;3.08;2.17;;;20.00;53.10;;;;;;5081167;28;20471;-64
2024/03/08 06:16:04;;;;;;;3.67;2.65;;;20.00;53.10;;;;;;5077532;28;20020;-62
2024/03/08 06:18:30;;;;;;;4.20;2.63;;;20.00;53.20;;;;;;5080763;28;20028;-63
2024/03/08 06:20:56;;;;;;;4.95;2.70;;;20.10;53.20;;;;;;5076365;28;20058;-64
2024/03/08 06:23:22;;;;;;;3.33;2.40;;;20.00;53.20;;;;;;5077001;28;20106;-64
2024/03/08 06:25:47;;;;;;;3.83;2.50;;;20.00;53.30;;;;;;5080304;28;20028;-64
2024/03/08 06:28:14;;;;;;;3.47;2.33;;;20.00;53.30;;;;;;5079992;28;20033;-64
2024/03/08 06:30:40;;;;;;;3.60;2.53;;;20.00;53.30;;;;;;5082116;28;20400;-64
2024/03/08 06:33:05;;;;;;;3.67;2.40;;;20.00;53.30;;;;;;5081425;28;20031;-64
2024/03/08 06:35:37;;;;;;;3.30;2.30;;;20.00;53.30;;;;;;5082259;28;20036;-64
2024/03/08 06:38:03;;;;;;;3.42;2.15;;;20.00;53.30;;;;;;5083013;28;20043;-64
2024/03/08 06:40:29;;;;;;;3.28;2.03;;;20.00;53.80;;;;;;5081710;28;20043;-64
2024/03/08 06:42:55;;;;;;;3.13;1.92;;;20.00;53.30;;;;;;5080815;28;20052;-64
2024/03/08 06:45:21;;;;;;;2.40;1.65;;;20.00;53.30;;;;;;5080800;28;20041;-64
2024/03/08 06:47:47;;;;;;;3.20;2.00;;;20.00;53.30;;;;;;5078139;28;20032;-64
2024/03/08 06:50:15;;;;;;;3.40;2.38;;;20.00;53.30;;;;;;5095705;28;20048;-63
2024/03/08 06:52:42;;;;;;;4.38;2.33;;;20.00;53.50;;;;;;5095274;28;20108;-64
2024/03/08 06:55:11;;;;;;;2.88;2.00;;;20.00;53.50;;;;;;5062890;28;20516;-64
2024/03/08 06:57:38;;;;;;;;;;;20.00;53.40;;;;;;5082852;28;20512;-63
2024/03/08 07:00:05;;;;;;;4.03;2.10;;;20.00;53.40;;;;;;5079662;28;19909;-64
2024/03/08 07:02:32;;;;;;;2.80;1.90;;;20.00;53.40;;;;;;5081284;28;20500;-64
2024/03/08 07:04:58;;;;;;;2.95;1.90;;;20.00;53.40;;;;;;5080794;28;20627;-63
2024/03/08 07:07:24;;;;;;;3.85;1.90;;;20.00;53.40;;;;;;5082984;28;20028;-64
2024/03/08 07:09:49;;;;;;;3.35;2.00;;;20.00;53.40;;;;;;5082019;28;20053;-64
2024/03/08 07:12:15;;;;;;;3.78;1.92;;;20.00;53.40;;;;;;5079431;28;20123;-64
2024/03/08 07:14:41;;;;;;;3.45;2.00;;;20.00;53.40;;;;;;5063365;28;20158;-64
2024/03/08 07:17:11;;;;;;;2.83;2.00;;;20.00;53.40;;;;;;5082703;28;20543;-64
2024/03/08 07:19:38;;;;;;;4.32;2.05;;;20.00;53.40;;;;;;5077962;28;20033;-64
2024/03/08 07:22:04;;;;;;;3.75;2.20;;;19.90;53.30;;;;;;5080039;28;20017;-64
2024/03/08 07:27:14;;;;;;;4.78;2.15;;;19.90;53.30;;;;;;5082372;28;20017;-64
2024/03/08 07:29:40;;;;;;;4.03;2.40;;;19.90;53.30;;;;;;5081108;28;20108;-67
2024/03/08 07:32:25;;;;;;;3.72;2.20;;;19.90;53.30;;;;;;5095939;28;20456;-67
2024/03/08 07:34:51;;;;;;;4.53;2.40;;;19.90;53.30;;;;;;5078124;28;20070;-66
2024/03/08 07:37:20;;;;;;;4.22;2.17;;;19.90;53.30;;;;;;5082620;28;20480;-67
2024/03/08 07:39:46;;;;;;;5.53;2.60;;;20.00;53.40;;;;;;5079408;28;20523;-66
2024/03/08 07:42:12;;;;;;;5.38;2.42;;;19.90;53.30;;;;;;5080350;28;20033;-67
2024/03/08 07:44:38;;;;;;;3.97;2.20;;;19.90;53.30;;;;;;5079952;28;20477;-66
2024/03/08 07:47:03;;;;;;;4.50;2.60;;;19.90;53.30;;;;;;5081711;28;20054;-66
2024/03/08 07:49:29;;;;;;;3.90;2.22;;;19.90;53.30;;;;;;5081410;28;20075;-67
2024/03/08 07:51:56;;;;;;;4.10;2.35;;;19.90;53.30;;;;;;5080653;28;20029;-67
2024/03/08 07:54:22;;;;;;;5.05;2.90;;;19.90;53.30;;;;;;5081468;28;20047;-67
2024/03/08 07:56:47;;;;;;;4.20;2.50;;;19.90;53.30;;;;;;5078258;28;20025;-67
2024/03/08 07:59:13;;;;;;;4.55;2.50;;;19.90;53.30;;;;;;5079873;28;20063;-67
2024/03/08 08:01:38;;;;;;;4.00;2.40;;;19.90;53.30;;;;;;5081517;28;20964;-67
2024/03/08 08:04:04;;;;;;;5.30;2.67;;;19.90;53.30;;;;;;5080625;28;20101;-66
2024/03/08 08:06:33;;;;;;;4.93;2.40;;;19.90;53.30;;;;;;5080453;28;20028;-67
2024/03/08 08:09:00;;;;;;;4.50;2.65;;;19.90;53.30;;;;;;5080228;28;20086;-67
2024/03/08 08:11:27;;;;;;;4.20;2.80;;;19.90;53.30;;;;;;5061634;28;20062;-62
2024/03/08 08:13:54;;;;;;;4.68;2.38;;;19.90;53.30;;;;;;5079548;28;20028;-62
2024/03/08 08:16:22;;;;;;;4.72;2.90;;;19.90;53.30;;;;;;5080881;28;20035;-64
2024/03/08 08:18:48;;;;;;;3.75;2.10;;;19.90;53.20;;;;;;5078319;28;20582;-63
2024/03/08 08:21:14;;;;;;;3.88;2.40;;;19.90;53.30;;;;;;5059534;28;20036;-62
2024/03/08 08:23:39;;;;;;;5.57;2.45;;;19.90;53.30;;;;;;5078924;28;20032;-62
2024/03/08 08:26:07;;;;;;;5.72;2.80;;;19.90;53.20;;;;;;5078529;28;20035;-63
2024/03/08 08:28:33;;;;;;;4.15;2.40;;;19.90;53.20;;;;;;5079364;28;20016;-62
2024/03/08 08:30:59;;;;;;;4.30;2.38;;;19.90;53.20;;;;;;5079723;28;20471;-63
2024/03/08 08:33:25;;;;;;;4.47;2.47;;;19.90;53.20;;;;;;5079412;28;20511;-63
2024/03/08 08:35:53;;;;;;;4.05;2.67;;;19.90;53.20;;;;;;5076971;28;20020;-63
2024/03/08 08:38:20;;;;;;;4.72;2.70;;;19.90;53.20;;;;;;5079022;28;20115;-63
2024/03/08 08:40:47;;;;;;;5.35;2.90;;;19.90;53.20;;;;;;5079931;28;20021;-63
2024/03/08 08:43:14;;;;;;;4.18;2.60;;;19.80;53.10;;;;;;5078895;28;20024;-64
2024/03/08 08:45:39;;;;;;;4.63;2.63;;;19.90;53.10;;;;;;5077383;28;20392;-64
2024/03/08 08:48:06;;;;;;;4.93;2.70;;;19.80;53.10;;;;;;5076718;28;20036;-64
2024/03/08 08:50:32;;;;;;;4.68;2.60;;;19.80;53.10;;;;;;5077357;28;20436;-64
2024/03/08 08:52:58;;;;;;;3.97;2.30;;;19.80;53.10;;;;;;5076933;28;20161;-64
2024/03/08 08:55:27;;;;;;;4.88;2.55;;;19.90;53.20;;;;;;5080338;28;20554;-64
2024/03/08 08:57:53;;;;;;;4.40;2.83;;;19.80;53.10;;;;;;5077879;28;20044;-64
2024/03/08 09:00:23;;;;;;;4.35;2.60;;;19.80;53.10;;;;;;5078743;28;20024;-63
2024/03/08 09:02:50;;;;;;;4.65;2.70;;;19.80;53.10;;;;;;5079663;28;20105;-64
2024/03/08 09:05:16;;;;;;;4.72;2.78;;;19.80;53.10;;;;;;5079848;28;20050;-64
2024/03/08 09:07:44;;;;;;;4.10;2.47;;;19.80;53.10;;;;;;5078305;28;20114;-64
2024/03/08 09:10:11;;;;;;;3.63;2.53;;;19.80;53.00;;;;;;5078225;28;20089;-64
2024/03/08 09:12:40;;;;;;;4.55;2.50;;;19.80;53.00;;;;;;5078973;28;20024;-64
2024/03/08 09:15:08;;;;;;;4.57;3.00;;;19.80;53.10;;;;;;5078265;28;20024;-64
2024/03/08 09:17:34;;;;;;;4.03;2.50;;;19.80;53.00;;;;;;5076517;28;20392;-64
2024/03/08 09:20:00;;;;;;;4.15;2.65;;;19.80;53.00;;;;;;5076637;28;20040;-62
2024/03/08 09:22:26;;;;;;;3.90;2.72;;;19.80;53.00;;;;;;5075458;28;20169;-62
2024/03/08 09:24:51;;;;;;;3.65;2.58;;;19.80;53.00;;;;;;5077908;28;20139;-64
2024/03/08 09:27:18;;;;;;;4.38;2.63;;;19.80;52.90;;;;;;5077789;28;20024;-64
2024/03/08 09:29:44;;;;;;;3.90;2.70;;;19.80;53.00;;;;;;5094766;28;20028;-62
2024/03/08 09:32:11;;;;;;;4.95;2.83;;;19.80;53.00;;;;;;5078425;28;20024;-66
2024/03/08 09:34:37;;;;;;;3.63;2.45;;;19.80;52.90;;;;;;5075638;28;20020;-67
2024/03/08 09:37:04;;;;;;;4.07;2.58;;;19.80;52.90;;;;;;5079657;28;20033;-66
2024/03/08 09:39:30;;;;;;;4.80;3.10;;;19.80;52.90;;;;;;5076829;28;20486;-67
2024/03/08 09:41:56;;;;;;;4.18;2.70;;;19.80;52.90;;;;;;5078213;28;20079;-66
2024/03/08 09:44:23;;;;;;;4.03;2.58;;;19.80;52.90;;;;;;5078320;28;20059;-66
2024/03/08 09:46:53;;;;;;;4.38;2.83;;;19.80;52.90;;;;;;5080106;28;20035;-67
2024/03/08 09:49:19;;;;;;;4.20;2.75;;;19.80;52.90;;;;;;5077553;28;20074;-66
2024/03/08 09:51:45;;;;;;;4.97;2.80;;;19.80;52.90;;;;;;5075908;28;20033;-64
2024/03/08 09:54:12;;;;;;;4.20;2.70;;;19.80;52.90;;;;;;5078681;28;20732;-62
2024/03/08 09:56:44;;;;;;;4.10;2.58;;;19.80;52.90;;;;;;5079237;28;20016;-61
2024/03/08 10:01:55;;;;;;;3.90;2.80;;;19.80;52.90;;;;;;5076662;28;20107;-64
2024/03/08 10:04:24;;;;;;;5.05;2.90;;;19.70;52.80;;;;;;5079649;28;20413;-61
2024/03/08 10:06:49;;;;;;;4.45;2.67;;;19.80;52.80;;;;;;5081114;28;20032;-64
2024/03/08 10:09:16;;;;;;;3.67;2.63;;;19.80;52.80;;;;;;5083031;28;20032;-62
2024/03/08 10:11:42;;;;;;;4.70;2.95;;;19.80;52.90;;;;;;5085876;28;20387;-64
2024/03/08 10:14:09;;;;;;;4.65;2.97;;;19.70;52.70;;;;;;5081770;28;20032;-62
2024/03/08 10:16:35;;;;;;;3.88;2.65;;;19.70;52.70;;;;;;5082172;28;20475;-63
2024/03/08 10:19:00;;;;;;;4.32;2.88;;;19.70;52.80;;;;;;5080728;28;20071;-62
2024/03/08 10:21:27;;;;;;;4.57;2.70;;;19.70;52.70;;;;;;5079313;28;20013;-62
2024/03/08 10:23:53;;;;;;;4.38;2.80;;;19.80;52.70;;;;;;5081003;28;20020;-63
2024/03/08 10:26:21;;;;;;;4.00;2.80;;;19.80;52.80;;;;;;5081383;28;20481;-62
2024/03/08 10:28:48;;;;;;;4.53;2.90;;;19.70;52.70;;;;;;5082888;28;20427;-63
2024/03/08 10:31:15;;;;;;;4.20;2.83;;;19.80;52.70;;;;;;5081179;28;20028;-62
2024/03/08 10:33:41;;;;;;;4.07;2.85;;;19.70;52.70;;;;;;5082878;28;20047;-63
2024/03/08 10:36:10;;;;;;;4.20;2.92;;;19.70;52.70;;;;;;5079181;28;20484;-62
2024/03/08 10:38:41;;;;;;;4.18;3.03;;;19.70;52.60;;;;;;5082758;28;20028;-62
2024/03/08 10:41:16;;;;;;;3.78;2.75;;;19.80;52.80;;;;;;5098859;28;20418;-63
2024/03/08 10:43:56;;;;;;;4.30;2.90;;;19.80;52.70;;;;;;5080341;28;20028;-62
2024/03/08 10:46:47;;;;;;;4.82;3.05;;;19.80;52.70;;;;;;5080628;28;20064;-62
2024/03/08 10:49:17;;;;;;;3.90;3.10;;;19.80;52.70;;;;;;5082656;28;20024;-64
2024/03/08 10:51:43;;;;;;;6.13;3.30;;;19.80;52.70;;;;;;5079814;28;20448;-63
2024/03/08 10:54:11;;;;;;;5.55;3.30;;;19.80;52.70;;;;;;5082353;28;20036;-63
2024/03/08 10:56:37;;;;;;;6.10;3.17;;;19.70;52.70;;;;;;5083369;28;20530;-62
2024/03/08 10:59:04;;;;;;;5.00;3.30;;;19.70;52.80;;;;;;5081049;28;20024;-63
2024/03/08 11:01:30;;;;;;;6.05;3.58;;;19.80;52.90;;;;;;5079228;28;20107;-65
2024/03/08 11:03:56;;;;;;;5.25;2.90;;;19.80;53.00;;;;;;5081334;28;20443;-65
2024/03/08 11:06:22;;;;;;;4.55;3.00;;;19.80;53.00;;;;;;5078015;28;20036;-65
2024/03/08 11:08:50;;;;;;;4.63;3.13;;;19.80;53.00;;;;;;5081735;28;20026;-65
2024/03/08 11:11:27;;;;;;;6.72;3.20;;;19.80;53.00;;;;;;5065335;28;20079;-65
2024/03/08 11:13:53;;;;;;;4.78;3.03;;;19.80;53.00;;;;;;5081696;28;20024;-65
2024/03/08 11:16:25;;;;;;;4.95;3.10;;;19.80;53.00;;;;;;5080739;28;20036;-65
2024/03/08 11:18:53;;;;;;;5.95;3.38;;;19.80;52.90;;;;;;5081421;28;20032;-65
2024/03/08 11:21:19;;;;;;;4.38;3.00;;;19.80;53.00;;;;;;5081362;28;20024;-65
2024/03/08 11:24:00;;;;;;;4.80;3.22;;;19.80;53.00;;;;;;5075690;28;20060;-65
2024/03/08 11:26:25;;;;;;;7.43;3.47;;;19.80;53.10;;;;;;5081855;28;20040;-65
2024/03/08 11:28:55;;;;;;;4.93;2.72;;;19.80;53.10;;;;;;5079710;28;20025;-65
2024/03/08 11:31:21;;;;;;;4.18;2.85;;;19.90;53.20;;;;;;5080834;28;20036;-65
2024/03/08 11:33:48;;;;;;;5.45;2.72;;;19.90;53.30;;;;;;5080252;28;20361;-65
2024/03/08 11:36:21;;;;;;;3.85;2.70;;;19.90;53.20;;;;;;5082921;28;20128;-65
2024/03/08 11:38:48;;;;;;;4.10;2.63;;;19.90;53.20;;;;;;5064646;28;20036;-65
2024/03/08 11:41:19;;;;;;;3.97;3.15;;;19.90;53.30;;;;;;5081010;28;20129;-64
2024/03/08 11:43:45;;;;;;;4.97;3.33;;;19.90;53.30;;;;;;5080559;28;20036;-63
2024/03/08 11:46:12;;;;;;;3.58;2.50;;;19.90;53.30;;;;;;5081541;28;20063;-64
2024/03/08 11:48:42;;;;;;;4.28;2.83;;;20.00;53.40;;;;;;5080648;28;20091;-64
2024/03/08 11:51:08;;;;;;;4.20;2.90;;;20.00;53.40;;;;;;5079537;28;20035;-66
2024/03/08 11:53:36;;;;;;;5.05;3.40;;;20.00;53.40;;;;;;5078297;28;20024;-65
2024/03/08 11:56:08;;;;;;;4.28;2.80;;;20.00;53.40;;;;;;5081149;28;20020;-65
2024/03/08 11:58:36;;;;;;;4.15;2.72;;;20.00;53.40;;;;;;5080420;28;20024;-65
2024/03/08 12:01:12;;;;;;;4.38;3.00;;;20.00;53.40;;;;;;5080875;28;20055;-65
2024/03/08 12:03:44;;;;;;;3.95;3.05;;;20.00;53.40;;;;;;5080761;28;20035;-65
2024/03/08 12:06:15;;;;;;;4.70;2.92;;;20.00;53.50;;;;;;5080457;28;20036;-65
2024/03/08 12:08:41;;;;;;;4.60;3.30;;;20.00;53.40;;;;;;5080860;28;20081;-65
2024/03/08 12:11:09;;;;;;;5.78;3.25;;;20.10;53.50;;;;;;5080165;28;20395;-65
2024/03/08 12:13:35;;;;;;;4.60;3.20;;;20.10;53.50;;;;;;5081722;28;20033;-66
2024/03/08 12:16:04;;;;;;;4.47;2.90;;;20.10;53.40;;;;;;5079692;28;20079;-67
2024/03/08 12:18:34;;;;;;;4.28;2.90;;;20.10;53.40;;;;;;5064365;28;20028;-67
2024/03/08 12:21:19;;;;;;;3.97;2.97;;;20.10;53.40;;;;;;5079661;28;20075;-66
2024/03/08 12:23:45;;;;;;;3.90;3.00;;;20.10;53.40;;;;;;5077389;28;20441;-66
2024/03/08 12:26:17;;;;;;;4.30;2.83;;;20.10;53.40;;;;;;5079376;28;20089;-67
2024/03/08 12:28:44;;;;;;;3.50;2.53;;;20.10;53.30;;;;;;5080129;28;20029;-67
2024/03/08 12:31:12;;;;;;;4.70;3.08;;;20.20;53.30;;;;;;5079402;28;20028;-66
2024/03/08 12:33:54;;;;;;;4.22;2.92;;;20.20;53.30;;;;;;5079877;28;20488;-66
2024/03/08 12:36:20;;;;;;;3.50;2.65;;;20.20;53.30;;;;;;5064672;28;20025;-66
2024/03/08 12:38:50;;;;;;;4.18;2.85;;;20.20;53.20;;;;;;5079124;28;20508;-66
2024/03/08 12:41:17;;;;;;;3.75;2.85;;;20.20;53.20;;;;;;5081342;28;20373;-66
2024/03/08 12:43:48;;;;;;;4.00;2.85;;;20.20;53.10;;;;;;5079975;28;20032;-66
2024/03/08 12:46:14;;;;;;;4.10;2.72;;;20.20;53.10;;;;;;5080359;28;20037;-66
2024/03/08 12:48:40;;;;;;;3.80;2.58;;;20.20;53.10;;;;;;5080232;28;20032;-66
2024/03/08 12:51:10;;;;;;;4.60;3.00;;;20.30;53.10;;;;;;5078725;28;20039;-65
2024/03/08 12:53:35;;;;;;;4.53;3.28;;;20.30;53.00;;;;;;5078552;28;20039;-65